Latest Weather Observations for Oodnadatta

IDS60801

Issued at 11:01 am CST Tuesday 22 August 2017 (issued every 30 minutes, with the page automatically refreshed every 10 minutes)

About weather observations | Map of weather stations | Latest weather observations for SA | Other Formats
Station Details ID: 017043 Name: OODNADATTA AIRPORT Lat: -27.56 Lon: 135.45 Height: 116.5 m
Data from the previous 72 hours. | See also: Recent months at Oodnadatta
Date/Time
CST
Temp
°C
App
Temp
°C
Dew
Point
°C
Rel
Hum
%
Delta-T
°C
Wind Press
QNH
hPa
Press
MSL
hPa
Rain since
9am
mm
Dir  Spd
km/h
Gust
km/h
Spd
kts
Gust
kts
22/11:00am 16.3 12.6 6.2 51 4.9 SSE 15 20 8 11 1023.4 1023.3 0.0
22/10:30am 15.1 11.4 6.1 55 4.3 ESE 15 20 8 11 1023.9 1023.8 0.0
22/10:00am 15.1 11.0 6.1 55 4.4 SE 17 24 9 13 1024.0 1023.9 0.0
22/09:30am 14.2 9.6 6.3 59 3.8 SE 20 24 11 13 1023.6 1023.5 0.0
22/09:00am 12.7 9.1 5.1 60 3.5 SE 13 17 7 9 1023.7 1023.6 0.0
22/08:30am 10.5 7.4 3.5 62 3.1 SSE 9 13 5 7 1023.3 1023.2 0.0
22/08:00am 8.8 5.9 2.6 65 2.6 SSE 7 11 4 6 1023.0 1022.9 0.0
22/07:30am 7.6 5.8 1.5 65 2.5 CALM 0 2 0 1 1023.2 1023.1 0.0
22/07:00am 6.5 3.1 1.8 72 1.9 S 9 11 5 6 1022.8 1022.7 0.0
22/06:30am 6.7 2.9 1.6 70 2.1 S 11 11 6 6 1022.3 1022.2 0.0
22/06:00am 6.7 3.1 0.8 66 2.3 SSW 9 9 5 5 1022.1 1022.0 0.0
22/05:30am 7.6 4.2 1.7 66 2.4 SSW 9 9 5 5 1021.6 1021.5 0.0
22/05:00am 8.5 7.0 3.1 69 2.3 CALM 0 0 0 0 1021.2 1021.1 0.0
22/04:30am 8.4 6.9 2.8 68 2.4 CALM 0 0 0 0 1021.1 1021.0 0.0
22/04:00am 8.2 5.4 1.8 64 2.7 SSW 6 9 3 5 1020.9 1020.8 0.0
22/03:30am 8.9 5.6 2.5 64 2.7 SW 9 9 5 5 1020.6 1020.5 0.0
22/03:00am 9.5 6.6 2.8 63 2.9 SSW 7 9 4 5 1020.5 1020.4 0.0
22/02:30am 9.8 6.9 2.6 61 3.1 SSW 7 9 4 5 1020.8 1020.7 0.0
22/02:00am 10.7 6.8 3.3 60 3.3 S 13 15 7 8 1020.8 1020.7 0.0
22/01:30am 11.5 7.6 3.5 58 3.5 SSE 13 17 7 9 1020.9 1020.8 0.0
22/01:00am 12.3 8.1 3.8 56 3.8 S 15 19 8 10 1021.1 1021.0 0.0
22/12:30am 12.4 8.2 3.9 56 3.8 S 15 19 8 10 1021.2 1021.1 0.0
22/12:00am 11.9 7.9 2.9 54 3.9 S 13 17 7 9 1021.2 1021.1 0.0
 
Date/Time
CST
Temp
°C
App
Temp
°C
Dew
Point
°C
Rel
Hum
%
Delta-T
°C
Wind Press
QNH
hPa
Press
MSL
hPa
Rain since
9am
mm
Dir  Spd
km/h
Gust
km/h
Spd
kts
Gust
kts
21/11:30pm 12.2 8.5 2.6 52 4.2 SSW 11 15 6 8 1021.2 1021.1 0.0
21/11:00pm 12.9 9.7 3.0 51 4.4 SSW 9 11 5 6 1021.2 1021.1 0.0
21/10:30pm 13.6 9.7 3.4 50 4.6 SSW 13 15 7 8 1021.1 1021.0 0.0
21/10:00pm 14.0 10.5 3.5 49 4.8 SSW 11 13 6 7 1021.0 1020.9 0.0
21/09:30pm 14.5 10.6 3.3 47 5.1 SSW 13 13 7 7 1020.6 1020.5 0.0
21/09:00pm 15.5 11.6 3.6 45 5.5 SSW 13 13 7 7 1020.4 1020.3 0.0
21/08:30pm 16.9 12.4 4.3 43 5.9 SSW 17 19 9 10 1020.1 1020.0 0.0
21/08:00pm 17.0 13.2 4.0 42 6.1 SSW 13 17 7 9 1019.7 1019.6 0.0
21/07:30pm 17.9 13.8 4.1 40 6.5 SSW 15 17 8 9 1019.1 1019.1 0.0
21/07:00pm 19.0 14.0 4.4 38 7.0 SSW 20 28 11 15 1018.6 1018.6 0.0
21/06:30pm 19.8 13.6 4.3 36 7.5 SSW 26 32 14 17 1018.1 1018.1 0.0
21/06:00pm 20.5 14.3 4.1 34 7.9 SSW 26 32 14 17 1017.8 1017.8 0.0
21/05:30pm 21.4 14.9 4.5 33 8.3 SSW 28 39 15 21 1017.4 1017.4 0.0
21/05:00pm 21.8 14.4 3.9 31 8.7 SW 32 39 17 21 1017.0 1017.0 0.0
21/04:30pm 22.4 15.1 4.5 31 8.8 SW 32 44 17 24 1016.7 1016.6 0.0
21/04:00pm 22.3 15.0 4.4 31 8.8 SW 32 43 17 23 1016.4 1016.3 0.0
21/03:30pm 22.0 14.7 4.6 32 8.6 SSW 32 43 17 23 1016.2 1016.1 0.0
21/03:00pm 22.0 14.7 4.6 32 8.6 SSW 32 46 17 25 1016.3 1016.2 0.0
21/02:30pm 21.7 14.4 4.7 33 8.4 SW 32 43 17 23 1016.4 1016.3 0.0
21/02:00pm 22.0 14.8 5.0 33 8.5 SW 32 39 17 21 1016.6 1016.5 0.0
21/01:30pm 21.7 14.6 5.6 35 8.1 SW 32 44 17 24 1017.0 1017.0 0.0
21/01:00pm 20.5 13.5 6.1 39 7.2 SW 32 41 17 22 1017.4 1017.4 0.0
21/12:30pm 19.9 12.9 5.9 40 7.0 SW 32 43 17 23 1017.8 1017.8 0.0
21/12:00pm 19.6 12.7 6.4 42 6.6 SW 32 46 17 25 1018.0 1018.0 0.0
21/11:30am 19.3 11.8 6.1 42 6.6 SW 35 44 19 24 1018.2 1018.2 0.0
21/11:00am 18.7 11.7 6.2 44 6.2 SSW 32 39 17 21 1018.7 1018.7 0.0
21/10:30am 17.9 10.8 6.4 47 5.7 SSW 33 44 18 24 1018.6 1018.6 0.0
21/10:00am 17.2 9.4 6.7 50 5.2 SW 37 44 20 24 1018.5 1018.5 0.0
21/09:30am 16.4 9.4 6.2 51 5.0 SW 32 39 17 21 1018.6 1018.6 0.0
21/09:00am 15.9 9.2 5.5 50 5.0 SW 30 43 16 23 1018.2 1018.2 0.0
21/08:30am 15.4 9.0 5.0 50 4.9 SW 28 37 15 20 1017.8 1017.8 0.0
21/08:00am 14.7 8.9 4.4 50 4.8 SW 24 33 13 18 1017.2 1017.2 0.0
21/07:30am 12.9 8.6 3.0 51 4.4 WSW 15 17 8 9 1016.7 1016.6 0.0
21/07:00am 11.9 7.8 2.1 51 4.2 SW 13 17 7 9 1016.1 1016.0 0.0
21/06:30am 12.4 7.5 2.3 50 4.4 SW 17 20 9 11 1015.5 1015.4 0.0
21/06:00am 12.1 8.6 1.4 48 4.6 WSW 9 11 5 6 1015.0 1014.9 0.0
21/05:30am 12.9 9.0 1.3 45 5.0 SW 11 15 6 8 1014.7 1014.6 0.0
21/05:00am 13.4 9.1 1.1 43 5.3 SW 13 17 7 9 1014.5 1014.4 0.0
21/04:30am 13.4 8.3 0.8 42 5.4 SW 17 19 9 10 1014.3 1014.2 0.0
21/04:00am 14.0 8.5 0.3 39 5.8 SSW 19 20 10 11 1014.1 1014.0 0.0
21/03:30am 15.1 9.5 0.9 38 6.2 SSW 20 26 11 14 1013.9 1013.8 0.0
21/03:00am 16.3 9.6 1.2 36 6.7 SSW 26 35 14 19 1013.8 1013.7 0.0
21/02:30am 16.1 11.2 1.8 38 6.4 SW 17 19 9 10 1013.4 1013.3 0.0
21/02:00am 17.0 12.9 2.2 37 6.7 SSW 13 17 7 9 1013.5 1013.4 0.0
21/01:30am 17.6 13.1 2.4 36 6.9 SSW 15 17 8 9 1013.6 1013.5 0.0
21/01:00am 18.5 13.7 2.8 35 7.3 SSW 17 20 9 11 1013.8 1013.7 0.0
21/12:30am 18.7 13.6 3.3 36 7.2 SSW 19 24 10 13 1013.7 1013.6 0.0
21/12:00am 19.4 13.4 3.6 35 7.5 SSW 24 33 13 18 1013.7 1013.6 0.0
 
Date/Time
CST
Temp
°C
App
Temp
°C
Dew
Point
°C
Rel
Hum
%
Delta-T
°C
Wind Press
QNH
hPa
Press
MSL
hPa
Rain since
9am
mm
Dir  Spd
km/h
Gust
km/h
Spd
kts
Gust
kts
20/11:30pm 20.1 13.3 3.3 33 8.0 SSW 28 35 15 19 1013.6 1013.5 0.0
20/11:00pm 21.0 12.5 0.8 26 9.2 SSW 35 48 19 26 1013.5 1013.4 0.0
20/10:47pm 22.4 15.1 -0.3 22 10.2 SW 28 56 15 30 1013.1 1013.0 0.0
20/10:30pm 22.8 16.1 -1.3 20 10.7 WSW 24 32 13 17 1012.7 1012.6 0.0
20/10:00pm 22.7 15.2 -4.4 16 11.3 WNW 26 37 14 20 1012.9 1012.8 0.0
20/09:48pm 21.5 15.1 -4.5 17 10.7 NW 20 48 11 26 1012.6 1012.5 0.0
20/09:30pm 22.1 15.9 -4.9 16 11.1 NW 19 26 10 14 1011.1 1011.0 0.0
20/09:00pm 22.4 15.3 -4.6 16 11.2 N 24 30 13 16 1010.7 1010.6 0.0
20/08:30pm 23.0 16.3 -4.1 16 11.4 N 22 28 12 15 1010.7 1010.6 0.0
20/08:00pm 23.4 16.6 -4.7 15 11.7 N 22 30 12 16 1010.7 1010.6 0.0
20/07:30pm 23.5 17.1 -4.6 15 11.8 N 20 30 11 16 1010.8 1010.7 0.0
20/07:00pm 24.0 16.9 -4.2 15 12.0 N 24 33 13 18 1010.8 1010.7 0.0
20/06:30pm 24.4 17.3 -4.8 14 12.3 N 24 35 13 19 1010.6 1010.5 0.0
20/06:00pm 24.7 16.8 -4.6 14 12.4 N 28 37 15 20 1010.5 1010.4 0.0
20/05:30pm 25.0 16.4 -4.3 14 12.5 N 32 39 17 21 1010.9 1010.8 0.0
20/05:00pm 25.1 15.8 -5.2 13 12.7 N 35 48 19 26 1011.2 1011.1 0.0
20/04:30pm 25.4 16.1 -5.0 13 12.9 N 35 48 19 26 1011.0 1010.9 0.0
20/04:19pm 25.2 15.9 -5.1 13 12.8 N 35 54 19 29 1011.2 1011.1 0.0
20/04:00pm 25.1 15.4 -5.2 13 12.7 N 37 52 20 28 1011.2 1011.1 0.0
20/03:52pm 25.0 15.7 -5.3 13 12.7 N 35 54 19 29 1011.1 1011.0 0.0
20/03:30pm 25.0 15.3 -5.3 13 12.7 N 37 48 20 26 1011.4 1011.3 0.0
20/03:00pm 24.2 14.1 -5.9 13 12.4 N 39 50 21 27 1011.8 1011.7 0.0
20/02:30pm 23.6 13.9 -5.4 14 12.0 N 37 50 20 27 1012.4 1012.3 0.0
20/02:00pm 23.7 12.9 -5.3 14 12.0 N 43 61 23 33 1013.1 1013.0 0.0
20/01:58pm 24.0 13.2 -5.1 14 12.1 N 43 61 23 33 1013.1 1013.0 0.0
20/01:30pm 22.1 11.3 -4.9 16 11.1 N 43 56 23 30 1013.9 1013.8 0.0
20/01:03pm 21.9 12.0 -4.2 17 10.9 N 39 57 21 31 1014.9 1014.8 0.0
20/01:00pm 21.9 11.2 -4.2 17 10.9 N 43 57 23 31 1015.0 1014.9 0.0
20/12:52pm 21.1 11.2 -4.1 18 10.4 N 39 57 21 31 1015.4 1015.3 0.0
20/12:30pm 20.7 10.7 -4.4 18 10.3 NNE 39 50 21 27 1016.0 1015.9 0.0
20/12:00pm 20.4 10.5 -4.0 19 10.0 NNE 39 57 21 31 1017.1 1017.1 0.0
20/11:30am 19.6 8.8 -3.3 21 9.5 NNE 44 57 24 31 1017.8 1017.8 0.0
20/11:00am 18.6 8.0 -3.5 22 9.0 NNE 43 56 23 30 1018.3 1018.3 0.0
20/10:30am 18.2 8.0 -3.2 23 8.7 NNE 41 52 22 28 1018.8 1018.8 0.0
20/10:00am 17.1 6.9 -3.1 25 8.2 NNE 41 54 22 29 1019.6 1019.5 0.0
20/09:30am 15.8 5.2 -3.1 27 7.5 NNE 43 54 23 29 1020.0 1019.9 0.0
20/09:00am 15.0 5.3 -2.4 30 7.0 NE 39 50 21 27 1020.3 1020.2 0.0
20/08:30am 13.9 4.2 -2.5 32 6.5 NE 39 48 21 26 1020.6 1020.5 0.0
20/08:00am 13.6 3.8 -2.8 32 6.5 NE 39 48 21 26 1020.6 1020.5 0.0
20/07:30am 13.2 4.8 -2.7 33 6.2 NE 32 39 17 21 1020.6 1020.5 0.0
20/07:00am 13.1 4.1 -2.8 33 6.2 NE 35 43 19 23 1020.3 1020.2 0.0
20/06:30am 13.1 4.7 -2.8 33 6.2 NE 32 39 17 21 1020.3 1020.2 0.0
20/06:00am 13.2 5.9 -3.1 32 6.3 NE 26 32 14 17 1020.7 1020.6 0.0
20/05:30am 13.0 6.1 -2.9 33 6.2 NE 24 32 13 17 1020.9 1020.8 0.0
20/05:00am 13.3 6.4 -2.6 33 6.3 NE 24 30 13 16 1020.6 1020.5 0.0
20/04:30am 14.0 6.8 -2.4 32 6.5 NE 26 33 14 18 1020.8 1020.7 0.0
20/04:00am 14.2 6.9 -2.7 31 6.7 NE 26 32 14 17 1020.7 1020.6 0.0
20/03:30am 14.5 7.3 -2.4 31 6.8 NE 26 32 14 17 1020.8 1020.7 0.0
20/03:00am 14.8 7.2 -2.1 31 6.8 NE 28 33 15 18 1021.0 1020.9 0.0
20/02:30am 14.8 8.7 -2.6 30 6.9 NE 20 28 11 15 1021.3 1021.2 0.0
20/02:00am 15.2 9.1 -2.2 30 7.1 NE 20 26 11 14 1021.6 1021.5 0.0
20/01:30am 15.2 9.6 -2.7 29 7.2 NE 17 20 9 11 1021.9 1021.8 0.0
20/01:00am 15.5 10.0 -2.4 29 7.3 NE 17 20 9 11 1022.0 1021.9 0.0
20/12:30am 15.6 9.7 -2.3 29 7.2 NE 19 20 10 11 1022.2 1022.1 0.0
20/12:00am 15.6 10.1 -2.3 29 7.2 NE 17 20 9 11 1022.6 1022.5 0.0
 
Date/Time
CST
Temp
°C
App
Temp
°C
Dew
Point
°C
Rel
Hum
%
Delta-T
°C
Wind Press
QNH
hPa
Press
MSL
hPa
Rain since
9am
mm
Dir  Spd
km/h
Gust
km/h
Spd
kts
Gust
kts
19/11:30pm 15.9 10.0 -2.6 28 7.5 NE 19 24 10 13 1022.7 1022.6 0.0
19/11:00pm 15.5 10.3 -2.4 29 7.3 NE 15 17 8 9 1023.1 1023.0 0.0
19/10:30pm 15.7 10.1 -2.7 28 7.4 ENE 17 20 9 11 1023.4 1023.3 0.0
19/10:00pm 16.3 10.2 -2.2 28 7.6 ENE 20 22 11 12 1023.6 1023.5 0.0
19/09:30pm 15.8 10.2 -2.6 28 7.4 NE 17 20 9 11 1023.6 1023.5 0.0
19/09:00pm 15.6 10.0 -2.8 28 7.4 NE 17 20 9 11 1023.7 1023.6 0.0
19/08:30pm 16.0 10.4 -3.0 27 7.6 NE 17 19 9 10 1023.8 1023.7 0.0
19/08:00pm 16.7 11.0 -3.4 25 8.1 ENE 17 20 9 11 1024.0 1023.9 0.0
19/07:30pm 17.5 11.5 -3.3 24 8.4 ENE 19 22 10 12 1023.7 1023.6 0.0
19/07:00pm 18.0 12.0 -3.4 23 8.7 E 19 24 10 13 1023.6 1023.5 0.0
19/06:30pm 19.1 12.8 -3.7 21 9.3 E 20 26 11 14 1023.6 1023.5 0.0
19/06:00pm 20.0 13.0 -3.6 20 9.7 E 24 30 13 16 1023.3 1023.2 0.0
19/05:30pm 20.9 14.0 -2.9 20 10.0 E 24 32 13 17 1022.9 1022.8 0.0
19/05:00pm 21.5 14.0 -4.5 17 10.7 ENE 26 35 14 19 1022.8 1022.7 0.0
19/04:30pm 22.3 15.3 -3.1 18 10.8 E 24 32 13 17 1022.8 1022.7 0.0
19/04:00pm 22.0 15.4 -3.4 18 10.7 ENE 22 35 12 19 1023.0 1022.9 0.0
19/03:30pm 21.5 14.5 -3.1 19 10.4 E 24 33 13 18 1023.2 1023.1 0.0
19/03:00pm 22.2 15.1 -4.0 17 10.9 ENE 24 33 13 18 1023.6 1023.5 0.0
19/02:30pm 21.6 14.7 -2.3 20 10.2 ENE 24 33 13 18 1023.8 1023.7 0.0
19/02:00pm 21.4 14.1 -3.1 19 10.4 ENE 26 37 14 20 1024.3 1024.3 0.0
19/01:30pm 20.5 13.6 -2.5 21 9.7 ENE 24 35 13 19 1024.9 1024.9 0.0
19/01:00pm 20.8 13.9 -2.3 21 9.9 E 24 33 13 18 1025.5 1025.5 0.0
19/12:30pm 19.9 13.3 -0.7 25 9.0 E 24 33 13 18 1026.2 1026.2 0.0
19/12:00pm 19.2 12.2 -0.7 26 8.6 ENE 26 35 14 19 1026.8 1026.8 0.0
19/11:30am 18.3 11.0 0.0 29 8.0 ENE 28 39 15 21 1027.4 1027.4 0.0

Other Formats:

Comma delimited format used in spreadsheet applications
http://www.bom.gov.au/fwo/IDS60801/IDS60801.94476.axf

JavaScript Object Notation format (JSON) in row-major order
http://www.bom.gov.au/fwo/IDS60801/IDS60801.94476.json